SVBW weather

Hato El Burro Airport
BolĂ­var, Venezuela

Public forecast

Using degrees Celsius for public forecast. Weather courtesy of forecast.io.

Closest aviation weather report (METAR) to Hato El Burro Airport

Report is more than 6 hours old.

Closest report is Aeropuerto "General Tomas de Heres". Ciudad Bolivar, 59.7 nm (110.5 km) N. Retrieved 2018/10/11 09:00 UTC (1 year ago):

SVCB 110900Z /////KT 9999 FEW016 22/22 Q1012

Closest aviation forecast (TAF) to Hato El Burro Airport

Forecast is more than 6 hours old.

Closest forecast is Kamarang Airport, 185.8 nm (344.2 km) ESE. Retrieved 2020/04/08 12:00 UTC (10 hours ago):

TAF SYKM 081100Z 0812/0823 05012KT 9999 SCT018 SCT038 BKN100